Time;durP1;ratioP1;P1;durP2;ratioP2;P2;SDS_P1;SDS_P2;PMS_P1;PMS_P2;Temp;Humidity;BMP_temperature;BMP_pressure;BME280_temperature;BME280_humidity;BME280_pressure;Samples;Min_cycle;Max_cycle;Signal;HPM_P1;HPM_P2
2021/12/10 00:00:09;;;;;;;5.72;2.05;;;;;;;15.95;33.91;100912.41;5111098;28;20435;-58
2021/12/10 00:02:38;;;;;;;0.20;0.20;;;;;;;15.86;33.51;100902.44;5110870;28;20416;-58
2021/12/10 00:05:06;;;;;;;5.38;0.63;;;;;;;15.83;33.36;100894.69;5110196;28;20032;-57
2021/12/10 00:07:32;;;;;;;;;;;;;;;15.86;33.65;100899.78;5111496;28;20067;-59
2021/12/10 00:10:02;;;;;;;0.10;0.10;;;;;;;15.85;33.38;100909.59;5108572;28;20345;-58
2021/12/10 00:12:33;;;;;;;9.35;2.38;;;;;;;15.84;32.88;100907.91;5111190;28;20048;-58
2021/12/10 00:14:59;;;;;;;2.50;1.75;;;;;;;15.82;33.08;100909.84;5111173;28;20122;-58
2021/12/10 00:17:25;;;;;;;0.13;0.13;;;;;;;15.81;34.17;100907.25;5111256;28;20123;-58
2021/12/10 00:19:57;;;;;;;0.20;0.20;;;;;;;15.80;33.20;100905.56;5110632;28;20031;-58
2021/12/10 00:22:34;;;;;;;5.15;1.67;;;;;;;15.82;33.24;100907.16;5110903;28;20138;-58
2021/12/10 00:25:00;;;;;;;3.60;3.13;;;;;;;15.80;32.72;100908.22;5108163;28;20134;-58
2021/12/10 00:27:31;;;;;;;6.28;2.72;;;;;;;15.76;32.93;100906.78;5110395;28;20130;-57
2021/12/10 00:30:06;;;;;;;0.17;0.17;;;;;;;15.76;32.69;100902.28;5110840;28;20419;-57
2021/12/10 00:32:41;;;;;;;0.70;0.70;;;;;;;15.76;33.23;100904.13;5111161;28;20082;-58
2021/12/10 00:35:12;;;;;;;0.00;0.00;;;;;;;15.76;33.00;100901.44;5110272;28;20472;-59
2021/12/10 00:37:38;;;;;;;0.32;0.28;;;;;;;15.76;32.79;100890.78;5092620;28;20044;-60
2021/12/10 00:40:07;;;;;;;0.17;0.17;;;;;;;15.76;33.25;100891.63;5109929;28;20045;-59
2021/12/10 00:42:34;;;;;;;0.38;0.38;;;;;;;15.71;33.88;100899.13;5106310;28;20044;-59
2021/12/10 00:45:01;;;;;;;1.10;1.05;;;;;;;15.68;34.30;100892.22;5101262;28;20079;-57
2021/12/10 00:47:29;;;;;;;1.05;0.75;;;;;;;15.71;34.12;100898.31;5109481;28;20055;-58
2021/12/10 00:49:55;;;;;;;0.45;0.45;;;;;;;15.71;34.75;100904.47;5115321;28;20046;-58
2021/12/10 00:52:21;;;;;;;1.17;1.17;;;;;;;15.70;34.20;100902.78;5112321;28;20039;-60
2021/12/10 00:54:48;;;;;;;1.65;1.55;;;;;;;15.67;33.96;100903.88;5114705;28;20039;-60
2021/12/10 00:57:14;;;;;;;0.10;0.10;;;;;;;15.69;34.21;100909.94;5114918;28;20093;-59
2021/12/10 00:59:41;;;;;;;0.05;0.05;;;;;;;15.69;33.70;100915.28;5108593;28;20126;-59
2021/12/10 01:02:09;;;;;;;0.30;0.30;;;;;;;15.65;34.52;100910.28;5105804;28;20079;-58
2021/12/10 01:04:37;;;;;;;0.13;0.13;;;;;;;15.63;34.28;100907.75;5115413;28;20081;-58
2021/12/10 01:07:07;;;;;;;0.63;0.55;;;;;;;15.66;33.97;100917.34;5099445;28;20043;-58
2021/12/10 01:09:37;;;;;;;0.00;0.00;;;;;;;15.64;34.04;100930.78;5094918;28;20123;-58
2021/12/10 01:12:10;;;;;;;1.10;0.70;;;;;;;15.63;34.61;100929.09;5094729;28;20047;-58
2021/12/10 01:14:58;;;;;;;1.98;1.88;;;;;;;15.58;34.05;100931.28;5094604;28;20044;-57
2021/12/10 01:26:06;;;;;;;0.10;0.10;;;;;;;15.56;33.66;100935.03;5094603;28;20088;-58
2021/12/10 01:28:32;;;;;;;0.00;0.00;;;;;;;15.47;32.99;100934.75;5102841;28;20051;-59
2021/12/10 01:30:58;;;;;;;0.20;0.20;;;;;;;15.47;33.66;100945.44;5094604;28;20040;-59
2021/12/10 01:33:24;;;;;;;11.90;1.60;;;;;;;15.48;34.09;100932.97;5108846;28;20057;-59
2021/12/10 01:35:54;;;;;;;0.10;0.10;;;;;;;15.49;33.36;100937.34;5096161;28;20039;-59
2021/12/10 01:38:22;;;;;;;0.75;0.75;;;;;;;15.49;34.03;100932.00;5114550;28;20050;-57
2021/12/10 01:40:51;;;;;;;2.35;2.25;;;;;;;15.53;33.25;100941.44;5101382;28;20477;-58
2021/12/10 01:43:28;;;;;;;0.20;0.20;;;;;;;15.50;33.89;100939.00;5115026;28;20108;-58
2021/12/10 01:46:01;;;;;;;0.17;0.17;;;;;;;15.51;33.88;100940.72;5103699;28;20032;-57
2021/12/10 01:48:33;;;;;;;0.10;0.10;;;;;;;15.52;33.67;100931.75;5095245;28;20036;-57
2021/12/10 01:51:00;;;;;;;3.20;1.20;;;;;;;15.49;33.51;100938.19;5108024;28;20501;-58
2021/12/10 01:53:30;;;;;;;4.00;1.48;;;;;;;15.47;34.09;100939.25;5114599;28;20430;-57
2021/12/10 01:55:58;;;;;;;0.63;0.38;;;;;;;15.41;33.92;100939.72;5094162;28;20104;-58
2021/12/10 01:58:26;;;;;;;0.05;0.05;;;;;;;15.43;33.63;100945.81;5093857;28;20036;-58
2021/12/10 02:01:00;;;;;;;0.32;0.32;;;;;;;15.41;33.67;100951.25;5107637;28;20093;-58
2021/12/10 02:03:26;;;;;;;1.48;0.63;;;;;;;15.42;33.35;100957.44;5107425;28;20095;-59
2021/12/10 02:05:52;;;;;;;1.63;1.55;;;;;;;15.42;33.28;100952.94;5112423;28;20191;-60
2021/12/10 02:08:18;;;;;;;0.00;0.00;;;;;;;15.45;33.05;100952.72;5113920;28;20520;-59
2021/12/10 02:10:44;;;;;;;0.00;0.00;;;;;;;15.44;32.99;100951.00;5113465;28;20044;-59
2021/12/10 02:13:10;;;;;;;1.95;1.83;;;;;;;15.41;33.23;100945.06;5094641;28;20135;-59
2021/12/10 02:15:36;;;;;;;1.33;0.80;;;;;;;15.40;33.88;100954.03;5093998;28;20185;-59
2021/12/10 02:18:03;;;;;;;1.23;1.17;;;;;;;15.39;33.40;100958.53;5093646;28;20044;-59
2021/12/10 02:20:34;;;;;;;3.00;0.85;;;;;;;15.33;32.83;100957.16;5093717;28;20055;-57
2021/12/10 02:23:02;;;;;;;1.00;1.00;;;;;;;15.35;32.90;100951.72;5111992;28;20059;-60
2021/12/10 02:25:28;;;;;;;;;;;;;;;15.39;33.09;100957.66;5096934;28;20032;-57
2021/12/10 02:27:56;;;;;;;4.68;1.92;;;;;;;15.39;33.21;100957.66;5113479;28;19924;-57
2021/12/10 02:30:24;;;;;;;0.65;0.65;;;;;;;15.45;33.09;100946.53;5113689;28;20411;-58
2021/12/10 02:32:49;;;;;;;0.00;0.00;;;;;;;15.39;32.80;100952.31;5113269;28;20043;-58
2021/12/10 02:35:16;;;;;;;3.00;1.10;;;;;;;15.39;33.63;100944.31;5113670;28;20548;-58
2021/12/10 02:37:44;;;;;;;3.13;2.60;;;;;;;15.35;33.54;100946.38;5113809;28;20447;-58
2021/12/10 02:40:13;;;;;;;2.65;1.77;;;;;;;15.33;33.62;100946.50;5112181;28;20090;-58
2021/12/10 02:42:40;;;;;;;0.20;0.20;;;;;;;15.37;33.39;100939.97;5113508;28;20071;-57
2021/12/10 02:45:07;;;;;;;0.17;0.17;;;;;;;15.37;33.09;100941.78;5109049;28;20086;-58
2021/12/10 02:47:33;;;;;;;1.80;1.25;;;;;;;15.34;33.52;100945.53;5107896;28;20047;-59
2021/12/10 02:49:59;;;;;;;2.30;2.20;;;;;;;15.35;34.26;100944.56;5111991;28;20235;-60
2021/12/10 02:52:27;;;;;;;2.00;1.85;;;;;;;15.35;33.41;100941.91;5108228;28;20092;-60
2021/12/10 02:54:53;;;;;;;3.10;1.27;;;;;;;15.34;33.44;100940.22;5095674;28;20055;-59
2021/12/10 02:57:19;;;;;;;0.00;0.00;;;;;;;15.36;33.96;100950.75;5093010;28;20564;-59
2021/12/10 02:59:45;;;;;;;4.28;2.33;;;;;;;15.39;33.83;100942.53;5077203;28;20084;-60
2021/12/10 03:02:15;;;;;;;1.02;1.02;;;;;;;15.41;33.71;100940.56;5111915;28;20523;-59
2021/12/10 03:04:42;;;;;;;0.30;0.30;;;;;;;15.44;33.52;100951.00;5113326;28;20039;-60
2021/12/10 03:07:13;;;;;;;2.03;0.67;;;;;;;15.46;33.44;100948.22;5110572;28;20031;-59
2021/12/10 03:09:42;;;;;;;9.77;3.78;;;;;;;15.41;32.67;100945.06;5111835;28;20274;-59
2021/12/10 03:12:08;;;;;;;0.32;0.32;;;;;;;15.40;32.88;100949.53;5104884;28;20053;-58
2021/12/10 03:14:37;;;;;;;0.22;0.22;;;;;;;15.36;33.40;100956.06;5094431;28;20043;-58
2021/12/10 03:17:07;;;;;;;0.28;0.28;;;;;;;15.35;32.28;100957.03;5112701;28;20031;-59
2021/12/10 03:19:32;;;;;;;2.78;2.58;;;;;;;15.30;33.28;100960.06;5111923;28;20438;-59
2021/12/10 03:21:59;;;;;;;0.45;0.45;;;;;;;15.31;32.85;100960.91;5111520;28;20104;-59
2021/12/10 03:24:27;;;;;;;1.80;1.60;;;;;;;15.30;32.55;100953.88;5112607;28;20044;-59
2021/12/10 03:26:57;;;;;;;2.10;1.95;;;;;;;15.30;32.35;100953.88;5081012;28;20047;-60
2021/12/10 03:29:26;;;;;;;2.80;2.60;;;;;;;15.28;32.91;100954.00;5103690;28;20095;-60
2021/12/10 03:31:53;;;;;;;1.17;1.08;;;;;;;15.32;32.72;100955.47;5094461;28;20067;-59
2021/12/10 03:34:19;;;;;;;1.30;1.20;;;;;;;15.28;32.59;100959.34;5111757;28;20053;-58
2021/12/10 03:36:46;;;;;;;0.00;0.00;;;;;;;15.25;33.61;100967.53;5099923;28;20043;-59
2021/12/10 03:39:17;;;;;;;0.65;0.65;;;;;;;15.23;33.59;100965.97;5109705;28;20040;-60
2021/12/10 03:41:43;;;;;;;0.20;0.20;;;;;;;15.30;33.52;100973.41;5093793;28;20071;-59
2021/12/10 03:44:10;;;;;;;0.25;0.25;;;;;;;15.26;33.66;100971.91;5104529;28;20627;-60
2021/12/10 03:46:36;;;;;;;0.60;0.60;;;;;;;15.28;33.12;100978.00;5102236;28;20043;-59
2021/12/10 03:49:04;;;;;;;2.25;1.75;;;;;;;15.28;33.37;100972.66;5094460;28;20116;-59
2021/12/10 03:51:30;;;;;;;0.85;0.85;;;;;;;15.29;33.64;100982.38;5102299;28;20126;-60
2021/12/10 03:53:57;;;;;;;0.65;0.65;;;;;;;15.33;32.61;100977.66;5100955;28;20036;-57
2021/12/10 03:56:25;;;;;;;0.47;0.47;;;;;;;15.33;32.41;100981.16;5106835;28;20046;-62
2021/12/10 03:58:53;;;;;;;1.98;1.85;;;;;;;15.25;33.87;100978.22;5105845;28;20044;-62
2021/12/10 04:01:22;;;;;;;0.90;0.65;;;;;;;15.25;33.39;100980.03;5109949;28;20114;-60
2021/12/10 04:03:50;;;;;;;0.00;0.00;;;;;;;15.22;33.72;100983.78;5109781;28;20035;-62
2021/12/10 04:06:16;;;;;;;1.92;1.45;;;;;;;15.25;33.14;100977.38;5109804;28;20046;-61
2021/12/10 04:08:42;;;;;;;0.85;0.85;;;;;;;15.24;33.55;100973.88;5108744;28;20043;-59
2021/12/10 04:11:09;;;;;;;3.10;2.50;;;;;;;15.26;33.84;100974.59;5110460;28;20043;-59
2021/12/10 04:13:36;;;;;;;0.60;0.52;;;;;;;15.27;34.04;100972.78;5110824;28;20051;-62
2021/12/10 04:16:03;;;;;;;3.35;2.53;;;;;;;15.25;34.24;100975.53;5110523;28;20039;-60
2021/12/10 04:18:30;;;;;;;2.92;2.45;;;;;;;15.24;34.33;100978.34;5111593;28;20048;-61
2021/12/10 04:20:56;;;;;;;1.45;1.00;;;;;;;15.24;33.78;100975.66;5110913;28;20055;-60
2021/12/10 04:23:24;;;;;;;0.50;0.50;;;;;;;15.21;33.88;100990.09;5110957;28;20511;-61
2021/12/10 04:25:49;;;;;;;3.20;2.92;;;;;;;15.23;34.23;100982.81;5110603;28;20558;-60
2021/12/10 04:28:18;;;;;;;4.22;1.50;;;;;;;15.17;34.62;100980.63;5110465;28;20059;-60
2021/12/10 04:30:46;;;;;;;2.65;1.55;;;;;;;15.16;34.25;100984.25;5111139;28;20039;-60
2021/12/10 04:33:14;;;;;;;;;;;;;;;15.14;33.88;100988.84;5111277;28;20062;-60
2021/12/10 04:35:40;;;;;;;2.08;1.95;;;;;;;15.14;34.58;100987.03;5110947;28;19969;-59
2021/12/10 04:38:06;;;;;;;2.92;2.28;;;;;;;15.14;33.97;100986.19;5110585;28;20047;-59
2021/12/10 04:40:32;;;;;;;3.97;2.55;;;;;;;15.09;33.98;100989.22;5110881;28;20083;-59
2021/12/10 04:42:58;;;;;;;2.92;2.38;;;;;;;15.11;34.91;101007.75;5110749;28;20074;-62
2021/12/10 04:45:25;;;;;;;0.15;0.15;;;;;;;15.12;32.28;101004.13;5084195;28;20081;-66
2021/12/10 04:47:51;;;;;;;1.70;1.08;;;;;;;15.01;31.88;101005.75;5104492;28;20047;-65
2021/12/10 04:50:19;;;;;;;2.33;2.15;;;;;;;14.94;33.40;101009.84;5110281;28;20220;-59
2021/12/10 04:52:46;;;;;;;0.03;0.03;;;;;;;14.97;33.82;101001.63;5110578;28;20602;-62
2021/12/10 04:55:13;;;;;;;1.83;1.75;;;;;;;14.92;32.39;101003.78;5092021;28;20495;-59
2021/12/10 04:57:40;;;;;;;0.50;0.50;;;;;;;14.88;32.50;101002.31;5110769;28;20043;-62
2021/12/10 05:00:09;;;;;;;2.88;2.65;;;;;;;14.95;31.81;101011.53;5110648;28;20101;-59
2021/12/10 05:02:36;;;;;;;2.78;2.58;;;;;;;15.10;32.49;101017.53;5110575;28;20126;-61
2021/12/10 05:05:04;;;;;;;1.45;1.45;;;;;;;15.17;32.82;101016.09;5110650;28;20488;-60
2021/12/10 05:07:33;;;;;;;1.20;1.10;;;;;;;15.18;33.31;101022.31;5110439;28;20040;-59
2021/12/10 05:09:59;;;;;;;0.35;0.35;;;;;;;15.13;33.38;101016.47;5110391;28;20105;-60
2021/12/10 05:12:25;;;;;;;0.10;0.10;;;;;;;15.17;33.57;101018.78;5110699;28;20035;-60
2021/12/10 05:14:57;;;;;;;2.78;1.40;;;;;;;15.11;33.72;101013.06;5110526;28;20588;-62
2021/12/10 05:17:27;;;;;;;0.52;0.52;;;;;;;15.04;32.97;101024.19;5110289;28;20040;-68
2021/12/10 05:19:53;;;;;;;6.75;4.43;;;;;;;15.01;33.22;101018.22;5110791;28;20083;-69
2021/12/10 05:22:19;;;;;;;5.20;3.53;;;;;;;14.88;32.35;101015.63;5110230;28;20720;-68
2021/12/10 05:24:44;;;;;;;1.35;1.25;;;;;;;14.74;32.50;101015.78;5110409;28;20127;-60
2021/12/10 05:27:10;;;;;;;6.43;3.47;;;;;;;14.76;33.19;101011.22;5113069;28;20067;-60
2021/12/10 05:29:36;;;;;;;6.13;2.20;;;;;;;14.78;32.84;101011.91;5114530;28;20047;-59
2021/12/10 05:32:05;;;;;;;4.43;2.28;;;;;;;14.75;32.70;101025.47;5095529;28;20046;-62
2021/12/10 05:34:32;;;;;;;1.55;0.88;;;;;;;14.76;32.39;101019.19;5114136;28;20129;-62
2021/12/10 05:36:58;;;;;;;1.40;1.30;;;;;;;14.76;32.30;101030.69;5095682;28;20043;-68
2021/12/10 05:39:25;;;;;;;1.38;0.57;;;;;;;14.83;32.06;101017.78;5114008;28;20067;-68
2021/12/10 05:41:52;;;;;;;6.00;1.15;;;;;;;14.83;32.25;101021.28;5113833;28;20488;-64
2021/12/10 05:44:18;;;;;;;0.00;0.00;;;;;;;14.84;32.11;101031.00;5113782;28;20032;-60
2021/12/10 05:46:44;;;;;;;13.60;4.75;;;;;;;14.87;31.98;101032.56;5095662;28;20043;-61
2021/12/10 05:49:09;;;;;;;0.10;0.10;;;;;;;14.88;31.97;101042.28;5113854;28;20056;-65
2021/12/10 05:51:35;;;;;;;1.00;1.00;;;;;;;14.89;31.54;101043.94;5095410;28;20043;-64
2021/12/10 05:54:02;;;;;;;0.65;0.45;;;;;;;14.90;31.67;101048.31;5113558;28;20097;-64
2021/12/10 05:56:28;;;;;;;0.38;0.38;;;;;;;14.96;31.58;101044.38;5114118;28;20039;-67
2021/12/10 05:58:54;;;;;;;0.75;0.75;;;;;;;14.96;31.67;101053.19;5113729;28;20150;-68
2021/12/10 06:01:21;;;;;;;0.95;0.95;;;;;;;14.95;31.68;101051.50;5113696;28;20244;-66
2021/12/10 06:03:54;;;;;;;0.00;0.00;;;;;;;14.96;31.17;101057.69;5095858;28;20120;-71
2021/12/10 06:06:29;;;;;;;12.07;5.93;;;;;;;14.98;30.71;101061.94;5113839;28;20052;-70
2021/12/10 06:08:56;;;;;;;0.10;0.10;;;;;;;14.96;31.26;101058.53;5113888;28;20043;-67
2021/12/10 06:11:24;;;;;;;0.32;0.32;;;;;;;15.00;31.08;101051.16;5113117;28;20066;-62
2021/12/10 06:13:50;;;;;;;0.85;0.82;;;;;;;15.03;30.86;101051.78;5113329;28;20059;-63
2021/12/10 06:16:16;;;;;;;0.82;0.82;;;;;;;15.01;31.02;101056.38;5109456;28;20058;-70
2021/12/10 06:18:42;;;;;;;0.50;0.45;;;;;;;15.08;30.69;101051.44;5095410;28;20036;-67
2021/12/10 06:21:08;;;;;;;0.80;0.80;;;;;;;15.07;30.79;101060.41;5098227;28;20404;-71
2021/12/10 06:23:34;;;;;;;4.57;0.70;;;;;;;15.12;30.70;101062.75;5099572;28;20044;-70
2021/12/10 06:26:00;;;;;;;2.08;1.25;;;;;;;15.17;30.16;101057.91;5080219;28;20038;-67
2021/12/10 06:28:26;;;;;;;0.47;0.47;;;;;;;15.14;30.00;101061.66;5096950;28;20079;-60
2021/12/10 06:30:52;;;;;;;1.25;1.08;;;;;;;15.19;30.14;101061.31;5093861;28;20706;-63
2021/12/10 06:33:21;;;;;;;2.08;1.45;;;;;;;15.25;30.20;101065.34;5101684;28;20123;-61
2021/12/10 06:35:49;;;;;;;1.00;1.00;;;;;;;15.33;30.35;101070.94;5102415;28;20035;-63
2021/12/10 06:38:15;;;;;;;0.00;0.00;;;;;;;15.36;30.16;101063.56;5106494;28;20152;-62
2021/12/10 06:40:43;;;;;;;0.55;0.55;;;;;;;15.41;29.53;101062.38;5111061;28;20050;-60
2021/12/10 06:43:09;;;;;;;;;;;;;;;15.41;29.98;101073.03;5112424;28;20135;-64
2021/12/10 06:45:37;;;;;;;1.50;0.90;;;;;;;15.43;29.67;101063.13;5112117;28;19915;-65
2021/12/10 06:48:05;;;;;;;2.22;2.08;;;;;;;15.43;29.71;101063.97;5112166;28;20044;-68
2021/12/10 06:50:40;;;;;;;2.90;2.17;;;;;;;15.44;29.63;101071.00;5112994;28;20052;-66
2021/12/10 06:53:06;;;;;;;2.05;0.95;;;;;;;15.48;28.88;101075.13;5112386;28;20039;-67
2021/12/10 06:55:33;;;;;;;0.32;0.32;;;;;;;15.51;29.62;101079.38;5111811;28;20056;-65
2021/12/10 06:57:59;;;;;;;3.88;1.65;;;;;;;15.53;29.45;101072.94;5109028;28;20054;-68
2021/12/10 07:00:33;;;;;;;0.57;0.57;;;;;;;15.51;29.12;101076.69;5112431;28;20126;-67
2021/12/10 07:02:59;;;;;;;4.05;1.65;;;;;;;15.49;29.57;101082.16;5112179;28;20043;-67
2021/12/10 07:05:26;;;;;;;0.17;0.17;;;;;;;15.52;29.40;101076.59;5111784;28;20040;-64
2021/12/10 07:07:52;;;;;;;0.28;0.28;;;;;;;15.52;28.81;101087.25;5111448;28;20131;-63
2021/12/10 07:10:18;;;;;;;1.52;1.40;;;;;;;15.52;29.23;101078.41;5109388;28;20108;-69
2021/12/10 07:12:45;;;;;;;1.90;1.48;;;;;;;15.55;28.41;101091.50;5112434;28;20481;-68
2021/12/10 07:15:12;;;;;;;3.78;0.65;;;;;;;15.61;28.94;101095.53;5107216;28;20054;-61
2021/12/10 07:17:41;;;;;;;0.28;0.25;;;;;;;15.66;28.95;101104.91;5091657;28;20052;-63
2021/12/10 07:20:08;;;;;;;0.47;0.47;;;;;;;15.69;28.46;101093.97;5092646;28;20109;-61
2021/12/10 07:22:34;;;;;;;1.67;1.55;;;;;;;15.73;29.00;101091.09;5111868;28;20039;-62
2021/12/10 07:25:00;;;;;;;0.82;0.20;;;;;;;15.75;29.33;101091.81;5111948;28;20047;-64
2021/12/10 07:27:26;;;;;;;1.55;0.85;;;;;;;15.78;29.75;101099.59;5112170;28;20057;-60
2021/12/10 07:29:52;;;;;;;0.30;0.30;;;;;;;15.84;31.91;101107.16;5112273;28;20088;-65
2021/12/10 07:32:18;;;;;;;1.63;1.52;;;;;;;15.95;33.69;101109.84;5110448;28;20043;-65
2021/12/10 07:34:44;;;;;;;0.98;0.95;;;;;;;16.06;33.89;101110.84;5092910;28;21333;-65
2021/12/10 07:37:10;;;;;;;28.85;1.92;;;;;;;16.06;35.92;101116.19;5111263;28;20040;-62
2021/12/10 07:39:37;;;;;;;0.00;0.00;;;;;;;16.12;37.53;101110.38;5111937;28;20399;-67
2021/12/10 07:42:06;;;;;;;0.65;0.28;;;;;;;16.24;36.72;101111.25;5111353;28;20046;-68
2021/12/10 07:44:36;;;;;;;1.15;1.10;;;;;;;16.22;37.11;101111.34;5112222;28;20074;-68
2021/12/10 07:47:04;;;;;;;0.73;0.73;;;;;;;16.28;37.82;101104.69;5093701;28;20480;-63
2021/12/10 07:49:32;;;;;;;4.07;1.77;;;;;;;16.25;36.29;101111.13;5108927;28;20073;-62
2021/12/10 07:51:59;;;;;;;5.43;2.15;;;;;;;16.25;35.54;101103.09;5111063;28;20081;-61
2021/12/10 07:54:25;;;;;;;0.82;0.82;;;;;;;16.24;35.12;101112.09;5109071;28;20483;-59
2021/12/10 07:56:52;;;;;;;1.75;0.82;;;;;;;16.15;35.36;101102.13;5110324;28;20040;-65
2021/12/10 07:59:17;;;;;;;5.30;2.40;;;;;;;16.18;34.94;101115.22;5110894;28;20044;-64
2021/12/10 08:01:44;;;;;;;0.05;0.05;;;;;;;16.20;34.31;101102.63;5111503;28;20035;-63
2021/12/10 08:04:10;;;;;;;47.60;3.30;;;;;;;16.16;33.93;101102.00;5110535;28;20071;-64
2021/12/10 08:06:36;;;;;;;2.33;2.22;;;;;;;16.12;34.10;101091.69;5073782;28;20045;-67
2021/12/10 08:09:07;;;;;;;0.93;0.93;;;;;;;16.21;33.66;101101.63;5076007;28;20039;-66
2021/12/10 08:11:33;;;;;;;;;;;;;;;16.20;33.01;101089.28;5108592;28;20119;-65
2021/12/10 08:13:59;;;;;;;1.40;1.30;;;;;;;16.18;33.37;101091.19;5110646;28;20399;-67
2021/12/10 08:16:25;;;;;;;0.35;0.35;;;;;;;16.24;33.16;101105.91;5091996;28;20036;-68
2021/12/10 08:18:55;;;;;;;3.83;2.65;;;;;;;16.30;32.59;101092.91;5111464;28;20492;-70
2021/12/10 08:21:22;;;;;;;1.08;0.85;;;;;;;16.32;32.36;101096.31;5111273;28;20035;-68
2021/12/10 08:23:50;;;;;;;0.23;0.23;;;;;;;16.35;31.51;101087.22;5109063;28;20093;-68
2021/12/10 08:26:16;;;;;;;0.25;0.25;;;;;;;16.40;31.31;101093.03;5109961;28;20296;-67
2021/12/10 08:28:42;;;;;;;0.57;0.57;;;;;;;16.42;31.02;101100.94;5091978;28;20553;-65
2021/12/10 08:31:08;;;;;;;2.03;1.92;;;;;;;16.46;31.23;101103.25;5110348;28;20070;-65
2021/12/10 08:33:34;;;;;;;1.17;1.08;;;;;;;16.48;31.25;101106.63;5110608;28;20054;-63
2021/12/10 08:36:06;;;;;;;2.00;1.35;;;;;;;16.53;30.87;101108.09;5109040;28;20035;-64
2021/12/10 08:38:32;;;;;;;0.10;0.10;;;;;;;16.56;30.62;101108.72;5109293;28;20063;-67
2021/12/10 08:41:17;;;;;;;0.00;0.00;;;;;;;16.54;30.65;101094.63;5110989;28;20048;-67
2021/12/10 08:43:43;;;;;;;0.10;0.10;;;;;;;16.48;29.96;101095.94;5108849;28;20492;-69
2021/12/10 08:46:11;;;;;;;0.00;0.00;;;;;;;16.62;29.35;101102.88;5107425;28;20042;-68
2021/12/10 08:48:37;;;;;;;0.10;0.10;;;;;;;16.82;29.26;101108.41;5110643;28;20039;-65
2021/12/10 08:51:08;;;;;;;1.35;1.20;;;;;;;17.19;28.20;101099.28;5110481;28;20104;-65
2021/12/10 08:53:35;;;;;;;1.27;1.27;;;;;;;17.26;28.98;101100.47;5106076;28;20043;-66
2021/12/10 08:56:01;;;;;;;0.00;0.00;;;;;;;17.20;28.64;101107.16;5109268;28;20039;-63
2021/12/10 08:58:28;;;;;;;0.10;0.10;;;;;;;17.13;27.25;101112.19;5110569;28;20114;-67
2021/12/10 09:00:59;;;;;;;3.88;1.45;;;;;;;17.11;28.52;101107.94;5093316;28;20504;-67
2021/12/10 09:03:25;;;;;;;1.48;1.38;;;;;;;17.05;28.05;101114.63;5114646;28;20131;-71
2021/12/10 09:05:51;;;;;;;1.35;1.02;;;;;;;16.96;28.63;101097.50;5114743;28;20123;-69
2021/12/10 09:08:16;;;;;;;0.63;0.63;;;;;;;16.94;28.05;101107.47;5114159;28;20035;-67
2021/12/10 09:10:45;;;;;;;0.20;0.20;;;;;;;16.97;28.64;101107.22;5114319;28;20040;-64
2021/12/10 09:13:16;;;;;;;5.50;1.75;;;;;;;16.94;28.27;101102.13;5114265;28;20503;-64
2021/12/10 09:15:45;;;;;;;5.55;3.40;;;;;;;16.86;28.64;101093.84;5112010;28;20038;-65
2021/12/10 09:18:11;;;;;;;3.08;1.83;;;;;;;16.82;28.46;101081.69;5113241;28;20042;-65
2021/12/10 09:20:41;;;;;;;0.40;0.40;;;;;;;16.83;28.56;101088.75;5113327;28;20047;-67
2021/12/10 09:23:11;;;;;;;0.20;0.20;;;;;;;16.84;28.41;101086.94;5096231;28;20054;-65
2021/12/10 09:25:38;;;;;;;1.25;1.05;;;;;;;16.88;28.24;101093.72;5114356;28;20076;-61
2021/12/10 09:28:05;;;;;;;0.32;0.30;;;;;;;16.84;28.72;101084.28;5114113;28;20044;-72
2021/12/10 09:30:33;;;;;;;0.20;0.20;;;;;;;16.75;28.55;101078.69;5114256;28;20053;-65
2021/12/10 09:32:59;;;;;;;0.43;0.40;;;;;;;16.81;27.92;101080.88;5114531;28;20050;-65
2021/12/10 09:35:29;;;;;;;0.30;0.30;;;;;;;16.83;28.45;101091.41;5113457;28;20043;-64
2021/12/10 09:37:55;;;;;;;0.57;0.57;;;;;;;16.94;28.51;101096.78;5112483;28;20047;-64
2021/12/10 09:40:26;;;;;;;0.20;0.20;;;;;;;16.97;28.36;101099.22;5113861;28;20416;-65
2021/12/10 09:42:53;;;;;;;0.20;0.20;;;;;;;16.94;27.82;101086.09;5112968;28;20062;-64
2021/12/10 09:45:23;;;;;;;2.17;1.60;;;;;;;16.95;27.34;101090.47;5111058;28;20417;-64
2021/12/10 09:47:49;;;;;;;2.47;1.17;;;;;;;16.96;27.39;101094.84;5114206;28;20043;-64
2021/12/10 09:50:17;;;;;;;4.85;1.55;;;;;;;16.90;26.59;101089.13;5113436;28;20035;-64
2021/12/10 09:52:45;;;;;;;1.27;1.17;;;;;;;16.90;27.41;101094.47;5111594;28;20111;-66
2021/12/10 09:55:12;;;;;;;;;;;;;;;16.86;26.94;101101.00;5114100;28;20389;-65
2021/12/10 09:57:38;;;;;;;3.33;3.13;;;;;;;16.87;26.35;101106.22;5114125;28;19984;-65
2021/12/10 10:00:32;;;;;;;0.98;0.65;;;;;;;16.86;27.32;101103.69;5113903;28;20039;-66
2021/12/10 10:02:59;;;;;;;2.33;2.15;;;;;;;16.89;26.53;101098.94;5111020;28;20449;-68
2021/12/10 10:05:27;;;;;;;2.08;1.92;;;;;;;16.92;26.21;101098.75;5112088;28;20067;-61
2021/12/10 10:07:59;;;;;;;0.00;0.00;;;;;;;16.95;26.06;101108.34;5113225;28;20568;-60
2021/12/10 10:10:29;;;;;;;7.63;3.58;;;;;;;17.01;25.86;101102.50;5110556;28;20066;-60
2021/12/10 10:12:55;;;;;;;1.35;1.17;;;;;;;16.96;25.86;101108.19;5112297;28;20048;-60
2021/12/10 10:15:26;;;;;;;0.65;0.28;;;;;;;16.99;25.33;101109.78;5112786;28;20047;-61
2021/12/10 10:17:54;;;;;;;0.90;0.90;;;;;;;16.93;25.99;101120.97;5113352;28;20520;-61
2021/12/10 10:20:21;;;;;;;0.10;0.10;;;;;;;16.96;25.77;101116.22;5113041;28;20174;-60
2021/12/10 10:22:47;;;;;;;0.03;0.03;;;;;;;16.97;26.09;101115.25;5113557;28;20047;-61
2021/12/10 10:25:15;;;;;;;2.88;2.47;;;;;;;17.01;25.69;101109.63;5113099;28;20499;-61
2021/12/10 10:27:42;;;;;;;0.05;0.05;;;;;;;17.03;25.77;101118.41;5113360;28;20054;-61
2021/12/10 10:30:25;;;;;;;1.85;1.65;;;;;;;17.02;25.67;101122.03;5094923;28;20039;-60
2021/12/10 10:32:55;;;;;;;1.45;0.98;;;;;;;17.00;25.23;101129.31;5113230;28;20048;-60
2021/12/10 10:35:26;;;;;;;0.08;0.08;;;;;;;16.94;25.23;101130.69;5112874;28;20399;-61
2021/12/10 10:37:54;;;;;;;1.13;1.08;;;;;;;17.00;25.08;101126.66;5113296;28;20477;-61
2021/12/10 10:40:23;;;;;;;0.10;0.10;;;;;;;16.98;25.04;101129.44;5113011;28;20048;-60
2021/12/10 10:42:49;;;;;;;12.45;3.22;;;;;;;17.08;24.77;101124.22;5113076;28;20043;-61
2021/12/10 10:45:21;;;;;;;0.25;0.25;;;;;;;17.82;23.94;101136.84;5094832;28;20059;-60
2021/12/10 10:47:49;;;;;;;0.00;0.00;;;;;;;18.49;22.31;101124.03;5113079;28;20065;-61
2021/12/10 10:50:20;;;;;;;0.00;0.00;;;;;;;18.91;22.02;101128.41;5112699;28;20031;-61
2021/12/10 10:52:49;;;;;;;0.00;0.00;;;;;;;19.27;21.26;101133.31;5112764;28;20147;-59
2021/12/10 10:55:20;;;;;;;0.15;0.15;;;;;;;19.64;21.15;101137.97;5112600;28;20035;-61
2021/12/10 10:57:55;;;;;;;1.10;1.10;;;;;;;19.89;20.84;101139.28;5094353;28;20039;-60
2021/12/10 11:00:32;;;;;;;0.00;0.00;;;;;;;20.14;20.58;101140.50;5112571;28;20051;-62
2021/12/10 11:03:04;;;;;;;0.00;0.00;;;;;;;20.33;20.57;101133.38;5113026;28;20052;-61
2021/12/10 11:05:31;;;;;;;1.17;1.08;;;;;;;20.55;20.18;101142.06;5112888;28;20047;-67
2021/12/10 11:08:00;;;;;;;0.83;0.63;;;;;;;20.75;19.95;101132.09;5112774;28;20040;-69
2021/12/10 11:10:29;;;;;;;0.00;0.00;;;;;;;20.90;19.09;101129.75;5112539;28;20346;-65
2021/12/10 11:13:11;;;;;;;0.00;0.00;;;;;;;20.99;18.86;101124.31;5112398;28;20043;-68
2021/12/10 11:15:39;;;;;;;0.00;0.00;;;;;;;20.80;19.42;101136.03;5112973;28;20126;-65
2021/12/10 11:18:05;;;;;;;0.90;0.88;;;;;;;20.30;19.30;101136.34;5112235;28;20071;-63
2021/12/10 11:20:38;;;;;;;0.32;0.32;;;;;;;19.90;18.95;101142.78;5094408;28;20070;-64
2021/12/10 11:23:08;;;;;;;0.00;0.00;;;;;;;19.44;20.35;101129.94;5111446;28;20071;-65
2021/12/10 11:25:34;;;;;;;0.00;0.00;;;;;;;19.34;20.21;101129.91;5112675;28;20135;-66
2021/12/10 11:28:09;;;;;;;0.00;0.00;;;;;;;19.29;19.87;101134.00;5093812;28;20552;-64
2021/12/10 11:30:40;;;;;;;0.20;0.20;;;;;;;19.24;19.52;101127.22;5112383;28;20399;-67
2021/12/10 11:33:09;;;;;;;11.95;3.97;;;;;;;19.20;19.34;101131.19;5112127;28;20039;-64
2021/12/10 11:35:39;;;;;;;1.10;1.10;;;;;;;19.28;20.22;101126.94;5112424;28;20036;-64
2021/12/10 11:38:09;;;;;;;0.60;0.60;;;;;;;19.33;19.74;101127.38;5093788;28;20035;-64